Estación de Petorca

Ultimos registro cada 15 minutos 75
Estación Fecha / Hora Temperatura Humedad Lluvia Velocidad Dirección Radiación Presion
75 Petorca 04-05-2026 18:30 17,7 47,1 0 0 336 0,6 982,9
74 Petorca 04-05-2026 18:15 18,7 43,5 0 0 279 0,6 982,7
73 Petorca 04-05-2026 18:00 19,8 46,1 0 0 258 4,4 982,4
72 Petorca 04-05-2026 17:45 19,2 39,3 0 0 293 9,4 982,3
71 Petorca 04-05-2026 17:30 20,4 37 0 0 232 13,1 982,2
70 Petorca 04-05-2026 17:15 22 36,1 0 1 216 16,9 982
69 Petorca 04-05-2026 17:00 22,3 35,4 0 0,5 243 20,6 982,1
68 Petorca 04-05-2026 16:45 23,6 31,5 0 0,5 248 24,4 982
67 Petorca 04-05-2026 16:30 25,4 27,8 0 0,5 248 263,1 981,7
66 Petorca 04-05-2026 16:15 25,9 26,4 0 1 244 308,1 981,6
65 Petorca 04-05-2026 16:00 26,8 24,7 0 1 246 353,1 981,3
64 Petorca 04-05-2026 15:45 26,4 24,7 0 1,5 241 278,1 981,3
63 Petorca 04-05-2026 15:30 27,4 23,7 0 0,5 254 409,4 981,3
62 Petorca 04-05-2026 15:15 26,8 24,7 0 2 229 476,9 981,4
61 Petorca 04-05-2026 15:00 27,2 24 0 2 229 508,1 981,4
60 Petorca 04-05-2026 14:45 26,7 23,8 0 2,5 219 538,1 981,4
59 Petorca 04-05-2026 14:30 27,2 23,6 0 2 225 570,6 981,9
58 Petorca 04-05-2026 14:15 27 23,5 0 2 223 598,1 982
57 Petorca 04-05-2026 14:00 26,4 23,9 0 2 227 594,4 982,5
56 Petorca 04-05-2026 13:45 26,5 23,6 0 2 227 650,6 983,1
55 Petorca 04-05-2026 13:30 26,4 24 0 2,5 219 635,6 983,4
54 Petorca 04-05-2026 13:15 26 23,7 0 2,5 212 571,9 983,7
53 Petorca 04-05-2026 13:00 25,9 25,7 0 2,5 226 686,9 983,9
52 Petorca 04-05-2026 12:45 25 27,6 0 2,5 226 628,1 984,3
51 Petorca 04-05-2026 12:30 24,7 28,3 0 3 225 673,1 984,5
50 Petorca 04-05-2026 12:15 25,4 26,2 0 2 216 628,1 984,6
49 Petorca 04-05-2026 12:00 24,2 29,6 0 1,5 220 686,9 984,7
48 Petorca 04-05-2026 11:45 23,6 30,4 0 1 223 653,1 984,9
47 Petorca 04-05-2026 11:30 22,7 33,7 0 0,5 185 544,4 984,9
46 Petorca 04-05-2026 11:15 22,7 32,2 0 0 191 628,1 985
45 Petorca 04-05-2026 11:00 22 32,9 0 0 197 593,1 985,3
44 Petorca 04-05-2026 10:45 21,3 35,6 0 0 233 563,1 985,3
43 Petorca 04-05-2026 10:30 19,8 36,8 0 0,5 216 486,9 985,5
42 Petorca 04-05-2026 10:15 20 36 0 0 227 526,9 985,3
41 Petorca 04-05-2026 10:00 18,7 37,9 0 0 219 309,4 985,5
40 Petorca 04-05-2026 09:45 18,3 39,9 0 0 149 449,4 985,4
39 Petorca 04-05-2026 09:30 17,5 41,6 0 0 117 208,1 985,4
38 Petorca 04-05-2026 09:15 17,3 41,2 0 0 91 343,1 985,4
37 Petorca 04-05-2026 09:00 15,1 46,7 0 0 74 299,4 985,3
36 Petorca 04-05-2026 08:45 13,4 53,2 0 0 29 241,9 985,3
35 Petorca 04-05-2026 08:30 11,2 57,3 0 0 39 196,9 985,4
34 Petorca 04-05-2026 08:15 8,6 63,2 0 0 352 30,6 985,4
33 Petorca 04-05-2026 08:00 9,6 57,2 0 0 10 25,6 985,3
32 Petorca 04-05-2026 07:45 7,9 62,7 0 0 25 13,1 985,1
31 Petorca 04-05-2026 07:30 6,6 68,7 0 0 41 4,4 985,4
30 Petorca 04-05-2026 07:15 6,5 70 0 0 39 1,9 985,2
29 Petorca 04-05-2026 07:00 6,9 67,8 0 0 348 0,6 985,4
28 Petorca 04-05-2026 06:45 6,7 68,8 0 0 55 0,6 985,4
27 Petorca 04-05-2026 06:30 7,6 62,9 0 0 18 0,6 985,2
26 Petorca 04-05-2026 06:15 7,2 66 0 0 14 0,6 985,1
25 Petorca 04-05-2026 06:00 8,3 63,3 0 0,5 44 0,6 985,1
24 Petorca 04-05-2026 05:45 7,8 64,4 0 0,5 22 0,6 985
23 Petorca 04-05-2026 05:30 7 68,7 0 0 32 0,6 985,1
22 Petorca 04-05-2026 05:15 6,9 70,3 0 0 32 0,6 985,1
21 Petorca 04-05-2026 05:00 6,6 71,4 0 0 35 0,6 984,9
20 Petorca 04-05-2026 04:45 7,5 69,4 0 0 348 0,6 984,9
19 Petorca 04-05-2026 04:30 7,6 68,9 0 0 347 0,6 984,8
18 Petorca 04-05-2026 04:15 8,9 66,4 0 0 51 0,6 984,7
17 Petorca 04-05-2026 04:00 8,5 67,2 0 0 18 0,6 984,7
16 Petorca 04-05-2026 03:45 7,2 70,7 0 0 25 0,6 984,8
15 Petorca 04-05-2026 03:30 7,9 68,1 0 0 21 0,6 985
14 Petorca 04-05-2026 03:15 8,8 66,7 0 0 343 0,6 985
13 Petorca 04-05-2026 03:00 8,4 66 0 0 66 0,6 985,2
12 Petorca 04-05-2026 02:45 9,7 61 0 0 37 0,6 985,4
11 Petorca 04-05-2026 02:30 9,5 61 0 0 17 0,6 985,6
10 Petorca 04-05-2026 02:15 9 63,3 0 0 39 0,6 985,9
9 Petorca 04-05-2026 02:00 8,8 65,4 0 0 17 0,6 985,9
8 Petorca 04-05-2026 01:45 8,7 66,1 0 0 25 0,6 986
7 Petorca 04-05-2026 01:30 8,6 67,3 0 0 358 0,6 986
6 Petorca 04-05-2026 01:15 8,5 68,4 0 0 24 0,6 986
5 Petorca 04-05-2026 01:00 8,9 67,1 0 0 345 0,6 986,1
4 Petorca 04-05-2026 00:45 9,6 63,8 0 0 20 0,6 986,2
3 Petorca 04-05-2026 00:30 9,5 63,7 0 0 312 0,6 986,4
2 Petorca 04-05-2026 00:15 11 59,8 0 0 45 0,6 986,5
1 Petorca 04-05-2026 00:00 10 63,5 0 0 323 0,6 986,7